createdAt,value
2019-04-28T00:01:36.896Z,100501.52
2019-04-28T00:04:08.858Z,100496.58
2019-04-28T00:06:42.256Z,100488.88
2019-04-28T00:09:15.124Z,100494.84
2019-04-28T00:11:46.712Z,100485.84
2019-04-28T00:14:21.916Z,100484.14
2019-04-28T00:16:53.950Z,100478.84
2019-04-28T00:19:26.771Z,100483.47
2019-04-28T00:22:03.200Z,100487.23
2019-04-28T00:24:41.528Z,100485.76
2019-04-28T00:27:13.463Z,100490.81
2019-04-28T00:29:46.301Z,100494.28
2019-04-28T00:32:18.494Z,100488.42
2019-04-28T00:34:51.161Z,100486.11
2019-04-28T00:37:24.385Z,100488.93
2019-04-28T00:39:56.127Z,100485.73
2019-04-28T00:42:27.714Z,100481.56
2019-04-28T00:44:59.234Z,100469.17
2019-04-28T00:47:31.293Z,100465.77
2019-04-28T00:50:03.158Z,100458.84
2019-04-28T00:52:35.020Z,100450.69
2019-04-28T00:55:07.344Z,100451.78
2019-04-28T00:57:40.959Z,100444.33
2019-04-28T01:00:14.352Z,100448.32
2019-04-28T01:02:46.188Z,100443.01
2019-04-28T01:05:18.023Z,100439.09
2019-04-28T01:07:51.516Z,100438.04
2019-04-28T01:10:24.298Z,100448.89
2019-04-28T01:12:56.058Z,100453.27
2019-04-28T01:15:29.897Z,100450.50
2019-04-28T01:18:06.426Z,100462.69
2019-04-28T01:20:39.670Z,100456.28
2019-04-28T01:23:11.176Z,100464.95
2019-04-28T01:25:42.850Z,100451.80
2019-04-28T01:28:16.857Z,100455.56
2019-04-28T01:30:53.219Z,100430.72
2019-04-28T01:33:26.351Z,100408.27
2019-04-28T01:35:57.946Z,100386.33
2019-04-28T01:38:30.271Z,100383.23
2019-04-28T01:41:02.247Z,100384.45
2019-04-28T01:43:34.026Z,100380.41
2019-04-28T01:46:05.754Z,100383.48
2019-04-28T01:48:37.537Z,100375.99
2019-04-28T01:51:09.563Z,100370.20
2019-04-28T01:53:41.329Z,100376.22
2019-04-28T01:56:13.281Z,100376.09
2019-04-28T01:58:45.643Z,100374.67
2019-04-28T02:01:17.406Z,100369.03
2019-04-28T02:03:50.222Z,100372.06
2019-04-28T02:06:22.358Z,100371.64
2019-04-28T02:09:00.876Z,100375.13
2019-04-28T02:11:34.115Z,100377.16
2019-04-28T02:14:06.132Z,100378.00
2019-04-28T02:16:37.581Z,100376.56
2019-04-28T02:19:10.721Z,100367.27
2019-04-28T02:21:44.686Z,100375.98
2019-04-28T02:24:30.862Z,100370.93
2019-04-28T02:27:03.725Z,100372.99
2019-04-28T02:29:35.571Z,100368.22
2019-04-28T02:32:10.374Z,100373.47
2019-04-28T02:34:44.072Z,100377.52
2019-04-28T02:37:15.623Z,100372.13
2019-04-28T02:39:47.478Z,100361.78
2019-04-28T02:42:20.799Z,100369.87
2019-04-28T02:44:52.644Z,100374.16
2019-04-28T02:47:24.510Z,100371.55
2019-04-28T02:50:14.405Z,100373.38
2019-04-28T02:52:55.193Z,100368.75
2019-04-28T02:55:27.321Z,100371.36
2019-04-28T02:58:01.443Z,100379.64
2019-04-28T03:00:32.135Z,100372.57
2019-04-28T03:03:03.736Z,100381.23
2019-04-28T03:05:35.490Z,100378.92
2019-04-28T03:08:07.456Z,100375.89
2019-04-28T03:10:41.327Z,100378.92
2019-04-28T03:13:14.621Z,100379.63
2019-04-28T03:15:46.654Z,100377.11
2019-04-28T03:18:18.274Z,100378.41
2019-04-28T03:20:51.572Z,100382.81
2019-04-28T03:23:23.352Z,100378.48
2019-04-28T03:25:57.693Z,100380.77
2019-04-28T03:28:37.007Z,100376.74
2019-04-28T03:31:47.768Z,100376.74
2019-04-28T03:33:55.131Z,100378.73
2019-04-28T03:36:23.966Z,100382.13
2019-04-28T03:38:55.661Z,100381.52
2019-04-28T03:41:27.668Z,100387.30
2019-04-28T03:44:00.524Z,100388.72
2019-04-28T03:46:34.237Z,100387.23
2019-04-28T03:49:05.772Z,100386.02
2019-04-28T03:51:40.791Z,100387.52
2019-04-28T03:54:12.220Z,100384.36
2019-04-28T03:56:45.079Z,100389.44
2019-04-28T03:59:16.949Z,100380.52
2019-04-28T04:01:56.537Z,100385.45
2019-04-28T04:04:21.996Z,100377.00
2019-04-28T04:06:53.875Z,100384.02
2019-04-28T04:09:27.357Z,100390.62
2019-04-28T04:12:21.280Z,100390.03
2019-04-28T04:14:54.493Z,100390.17
2019-04-28T04:17:33.409Z,100395.95
2019-04-28T04:20:05.438Z,100394.53
2019-04-28T04:22:36.974Z,100399.83
2019-04-28T04:25:12.274Z,100401.97
2019-04-28T04:27:42.292Z,100407.42
2019-04-28T04:30:15.626Z,100402.47
2019-04-28T04:32:47.498Z,100404.27
2019-04-28T04:35:21.442Z,100404.17
2019-04-28T04:37:53.162Z,100396.22
2019-04-28T04:40:24.774Z,100390.30
2019-04-28T04:42:56.494Z,100392.45
2019-04-28T04:45:30.464Z,100405.27
2019-04-28T04:48:02.768Z,100396.78
2019-04-28T04:50:34.723Z,100396.86
2019-04-28T04:53:06.290Z,100395.00
2019-04-28T04:55:40.789Z,100400.88
2019-04-28T04:58:14.435Z,100404.52
2019-04-28T05:00:56.870Z,100403.51
2019-04-28T05:03:31.329Z,100398.41
2019-04-28T05:06:04.938Z,100406.10
2019-04-28T05:08:36.705Z,100409.31
2019-04-28T05:11:11.299Z,100405.66
2019-04-28T05:13:44.845Z,100404.72
2019-04-28T05:16:16.659Z,100408.26
2019-04-28T05:18:49.915Z,100411.91
2019-04-28T05:21:21.844Z,100408.80
2019-04-28T05:23:54.941Z,100409.47
2019-04-28T05:26:26.689Z,100411.80
2019-04-28T05:28:59.716Z,100409.06
2019-04-28T05:31:32.456Z,100411.14
2019-04-28T05:34:08.151Z,100403.31
2019-04-28T05:36:43.955Z,100408.66
2019-04-28T05:39:12.725Z,100414.72
2019-04-28T05:41:45.455Z,100414.95
2019-04-28T05:44:17.317Z,100422.70
2019-04-28T05:46:50.652Z,100420.52
2019-04-28T05:49:43.397Z,100423.16
2019-04-28T05:52:33.675Z,100422.83
2019-04-28T05:55:11.861Z,100415.52
2019-04-28T05:57:45.350Z,100414.16
2019-04-28T06:00:19.878Z,100323.30
2019-04-28T06:02:56.531Z,100416.39
2019-04-28T06:05:30.130Z,100424.66
2019-04-28T06:08:17.633Z,100421.84
2019-04-28T06:10:50.168Z,100414.88
2019-04-28T06:13:22.442Z,100419.19
2019-04-28T06:15:56.203Z,100422.84
2019-04-28T06:18:28.261Z,100405.77
2019-04-28T06:21:00.066Z,100410.27
2019-04-28T06:23:32.060Z,100419.06
2019-04-28T06:26:03.987Z,100423.30
2019-04-28T06:28:35.569Z,100422.55
2019-04-28T06:31:07.416Z,100421.86
2019-04-28T06:33:38.912Z,100424.52
2019-04-28T06:36:10.677Z,100416.03
2019-04-28T06:38:42.277Z,100415.79
2019-04-28T06:41:13.992Z,100413.93
2019-04-28T06:43:45.637Z,100420.13
2019-04-28T06:46:17.662Z,100420.88
2019-04-28T06:48:49.106Z,100420.68
2019-04-28T06:51:20.991Z,100413.53
2019-04-28T06:53:53.094Z,100411.33
2019-04-28T06:56:29.303Z,100413.20
2019-04-28T06:59:04.193Z,100407.23
2019-04-28T07:01:36.049Z,100401.72
2019-04-28T07:04:08.267Z,100396.07
2019-04-28T07:06:40.247Z,100385.17
2019-04-28T07:09:12.371Z,100388.80
2019-04-28T07:11:44.048Z,100381.98
2019-04-28T07:14:17.782Z,100385.53
2019-04-28T07:16:51.687Z,100384.48
2019-04-28T07:19:24.196Z,100384.97
2019-04-28T07:22:03.262Z,100378.68
2019-04-28T07:24:36.198Z,100378.92
2019-04-28T07:27:13.499Z,100384.31
2019-04-28T07:29:45.566Z,100383.81
2019-04-28T07:32:24.527Z,100384.78
2019-04-28T07:35:00.109Z,100389.14
2019-04-28T07:37:33.405Z,100400.00
2019-04-28T07:40:07.928Z,100409.75
2019-04-28T07:42:43.903Z,100407.95
2019-04-28T07:45:15.063Z,100403.11
2019-04-28T07:47:48.315Z,100391.75
2019-04-28T07:50:21.530Z,100398.31
2019-04-28T07:52:59.370Z,100392.66
2019-04-28T07:55:31.187Z,100397.69
2019-04-28T07:58:05.132Z,100399.37
2019-04-28T08:00:38.948Z,100403.09
2019-04-28T08:03:15.730Z,100396.55
2019-04-28T08:05:47.505Z,100392.97
2019-04-28T08:08:20.796Z,100393.17
2019-04-28T08:10:54.645Z,100383.11
2019-04-28T08:13:30.157Z,100379.73
2019-04-28T08:16:02.048Z,100383.25
2019-04-28T08:18:35.950Z,100386.12
2019-04-28T08:21:07.540Z,100380.49
2019-04-28T08:23:47.366Z,100380.86
2019-04-28T08:26:19.316Z,100378.86
2019-04-28T08:28:53.593Z,100370.49
2019-04-28T08:31:29.846Z,100377.19
2019-04-28T08:34:05.958Z,100377.77
2019-04-28T08:36:40.105Z,100381.94
2019-04-28T08:39:13.458Z,100375.97
2019-04-28T08:41:45.152Z,100371.96
2019-04-28T08:44:17.408Z,100374.81
2019-04-28T08:46:49.110Z,100373.33
2019-04-28T08:49:21.533Z,100378.22
2019-04-28T08:51:55.950Z,100373.59
2019-04-28T08:54:31.164Z,100378.98
2019-04-28T08:57:04.981Z,100363.13
2019-04-28T08:59:43.055Z,100358.59
2019-04-28T09:02:15.518Z,100366.52
2019-04-28T09:04:51.519Z,100359.14
2019-04-28T09:07:24.240Z,100361.98
2019-04-28T09:09:56.394Z,100365.75
2019-04-28T09:12:28.293Z,100366.93
2019-04-28T09:15:00.081Z,100368.41
2019-04-28T09:17:33.669Z,100362.00
2019-04-28T09:20:09.413Z,100359.98
2019-04-28T09:22:41.051Z,100365.97
2019-04-28T09:25:15.983Z,100349.70
2019-04-28T09:27:49.387Z,100353.92
2019-04-28T09:30:22.655Z,100360.58
2019-04-28T09:32:55.248Z,100356.55
2019-04-28T09:35:27.224Z,100358.71
2019-04-28T09:37:58.989Z,100357.96
2019-04-28T09:40:32.485Z,100358.19
2019-04-28T09:43:18.014Z,100364.52
2019-04-28T09:45:51.406Z,100360.30
2019-04-28T09:48:23.316Z,100359.25
2019-04-28T09:50:56.739Z,100367.66
2019-04-28T09:53:28.959Z,100358.02
2019-04-28T09:56:01.875Z,100360.30
2019-04-28T09:58:33.739Z,100363.45
2019-04-28T10:01:05.697Z,100363.72
2019-04-28T10:03:37.877Z,100371.22
2019-04-28T10:06:11.049Z,100373.45
2019-04-28T10:08:43.451Z,100365.94
2019-04-28T10:11:15.253Z,100366.16
2019-04-28T10:13:50.009Z,100369.20
2019-04-28T10:16:21.736Z,100381.68
2019-04-28T10:18:53.423Z,100376.43
2019-04-28T10:21:28.002Z,100373.03
2019-04-28T10:24:03.307Z,100372.72
2019-04-28T10:26:37.261Z,100367.05
2019-04-28T10:29:10.523Z,100370.38
2019-04-28T10:31:43.298Z,100370.19
2019-04-28T10:34:16.261Z,100363.16
2019-04-28T10:36:49.721Z,100362.13
2019-04-28T10:39:32.042Z,100361.70
2019-04-28T10:42:04.863Z,100361.23
2019-04-28T10:44:39.243Z,100356.33
2019-04-28T10:47:11.169Z,100356.71
2019-04-28T10:49:43.169Z,100355.75
2019-04-28T10:52:16.628Z,100359.14
2019-04-28T10:54:52.625Z,100353.55
2019-04-28T10:57:24.509Z,100355.16
2019-04-28T10:59:57.458Z,100351.08
2019-04-28T11:02:29.609Z,100341.91
2019-04-28T11:05:08.738Z,100341.84
2019-04-28T11:07:36.880Z,100348.78
2019-04-28T11:10:10.336Z,100340.58
2019-04-28T11:12:42.544Z,100338.88
2019-04-28T11:15:18.353Z,100337.98
2019-04-28T11:17:50.022Z,100352.83
2019-04-28T11:20:25.082Z,100360.91
2019-04-28T11:22:57.776Z,100372.39
2019-04-28T11:25:30.537Z,100368.94
2019-04-28T11:28:02.216Z,100365.00
2019-04-28T11:30:36.494Z,100361.92
2019-04-28T11:33:19.670Z,100357.53
2019-04-28T11:35:51.807Z,100352.92
2019-04-28T11:38:23.569Z,100357.36
2019-04-28T11:40:55.383Z,100350.16
2019-04-28T11:43:27.168Z,100344.20
2019-04-28T11:45:58.860Z,100342.97
2019-04-28T11:48:31.783Z,100344.82
2019-04-28T11:51:03.965Z,100326.14
2019-04-28T11:53:37.305Z,100326.14
2019-04-28T11:56:09.401Z,100323.31
2019-04-28T11:58:41.044Z,100321.93
2019-04-28T12:01:13.699Z,100315.06
2019-04-28T12:03:45.779Z,100313.69
2019-04-28T12:06:17.218Z,100306.53
2019-04-28T12:08:51.891Z,100306.05
2019-04-28T12:11:25.349Z,100303.55
2019-04-28T12:14:06.816Z,100301.67
2019-04-28T12:16:55.311Z,100299.52
2019-04-28T12:19:29.026Z,100301.05
2019-04-28T12:22:00.712Z,100295.39
2019-04-28T12:24:34.213Z,100285.05
2019-04-28T12:27:08.703Z,100283.11
2019-04-28T12:29:40.250Z,100287.70
2019-04-28T12:32:12.055Z,100285.25
2019-04-28T12:34:43.943Z,100291.67
2019-04-28T12:37:16.920Z,100287.37
2019-04-28T12:39:48.577Z,100288.91
2019-04-28T12:42:21.186Z,100280.05
2019-04-28T12:44:53.091Z,100292.27
2019-04-28T12:47:24.814Z,100282.47
2019-04-28T12:49:58.006Z,100285.86
2019-04-28T12:52:29.513Z,100292.94
2019-04-28T12:55:01.342Z,100294.21
2019-04-28T12:57:32.921Z,100293.75
2019-04-28T13:00:22.994Z,100298.30
2019-04-28T13:03:15.115Z,100294.50
2019-04-28T13:06:00.883Z,100290.28
2019-04-28T13:08:22.511Z,100278.34
2019-04-28T13:10:54.662Z,100279.19
2019-04-28T13:13:27.471Z,100276.78
2019-04-28T13:15:59.726Z,100273.84
2019-04-28T13:18:31.935Z,100274.02
2019-04-28T13:21:03.694Z,100262.75
2019-04-28T13:23:36.562Z,100266.38
2019-04-28T13:26:11.142Z,100264.11
2019-04-28T13:28:43.986Z,100253.84
2019-04-28T13:31:15.837Z,100259.06
2019-04-28T13:33:56.342Z,100253.02
2019-04-28T13:36:21.223Z,100251.66
2019-04-28T13:38:53.969Z,100248.26
2019-04-28T13:41:25.586Z,100245.02
2019-04-28T13:43:57.191Z,100239.00
2019-04-28T13:46:29.919Z,100241.61
2019-04-28T13:49:04.178Z,100238.77
2019-04-28T13:51:34.918Z,100231.14
2019-04-28T13:54:07.766Z,100230.16
2019-04-28T13:56:39.490Z,100236.70
2019-04-28T13:59:12.729Z,100232.36
2019-04-28T14:02:04.488Z,100235.90
2019-04-28T14:04:40.647Z,100234.01
2019-04-28T14:07:12.430Z,100233.55
2019-04-28T14:09:44.190Z,100237.71
2019-04-28T14:12:16.133Z,100224.95
2019-04-28T14:14:48.212Z,100232.56
2019-04-28T14:17:19.738Z,100228.75
2019-04-28T14:19:51.606Z,100232.92
2019-04-28T14:22:23.386Z,100222.55
2019-04-28T14:24:55.240Z,100222.08
2019-04-28T14:27:28.240Z,100217.42
2019-04-28T14:29:59.974Z,100223.95
2019-04-28T14:32:31.810Z,100217.56
2019-04-28T14:35:05.135Z,100215.89
2019-04-28T14:37:36.758Z,100217.09
2019-04-28T14:40:08.651Z,100221.30
2019-04-28T14:42:40.243Z,100219.87
2019-04-28T14:45:12.506Z,100195.22
2019-04-28T14:47:44.701Z,100220.31
2019-04-28T14:50:17.138Z,100229.39
2019-04-28T14:52:49.709Z,100222.39
2019-04-28T14:55:21.427Z,100219.83
2019-04-28T14:57:54.154Z,100210.73
2019-04-28T15:00:33.463Z,100214.08
2019-04-28T15:03:06.977Z,100213.89
2019-04-28T15:05:40.195Z,100205.77
2019-04-28T15:08:16.667Z,100200.66
2019-04-28T15:10:52.907Z,100199.17
2019-04-28T15:13:25.510Z,100198.70
2019-04-28T15:15:57.416Z,100201.97
2019-04-28T15:18:29.263Z,100200.15
2019-04-28T15:21:02.609Z,100195.97
2019-04-28T15:23:44.667Z,100198.27
2019-04-28T15:26:22.309Z,100197.42
2019-04-28T15:28:56.652Z,100198.24
2019-04-28T15:31:28.377Z,100195.12
2019-04-28T15:34:00.608Z,100189.51
2019-04-28T15:36:34.191Z,100193.45
2019-04-28T15:39:09.503Z,100186.27
2019-04-28T15:41:44.017Z,100186.14
2019-04-28T15:44:19.247Z,100188.05
2019-04-28T15:46:51.554Z,100185.41
2019-04-28T15:49:23.293Z,100177.14
2019-04-28T15:51:55.072Z,100180.46
2019-04-28T15:54:28.594Z,100179.25
2019-04-28T15:57:00.923Z,100175.87
2019-04-28T15:59:32.732Z,100175.21
2019-04-28T16:02:04.478Z,100172.56
2019-04-28T16:04:39.588Z,100180.23
2019-04-28T16:07:24.362Z,100174.07
2019-04-28T16:09:45.564Z,100167.80
2019-04-28T16:12:17.387Z,100171.64
2019-04-28T16:14:49.246Z,100176.46
2019-04-28T16:17:23.524Z,100175.08
2019-04-28T16:19:55.364Z,100174.42
2019-04-28T16:22:27.016Z,100168.50
2019-04-28T16:24:58.697Z,100172.72
2019-04-28T16:27:30.569Z,100175.08
2019-04-28T16:30:08.840Z,100165.03
2019-04-28T16:32:40.873Z,100177.55
2019-04-28T16:35:14.311Z,100176.55
2019-04-28T16:37:46.713Z,100180.06
2019-04-28T16:40:18.864Z,100187.09
2019-04-28T16:42:50.909Z,100183.73
2019-04-28T16:45:22.700Z,100192.72
2019-04-28T16:47:54.467Z,100195.25
2019-04-28T16:50:26.315Z,100192.70
2019-04-28T16:52:59.003Z,100200.52
2019-04-28T16:55:32.797Z,100205.84
2019-04-28T16:58:24.761Z,100206.36
2019-04-28T17:00:58.289Z,100212.36
2019-04-28T17:03:49.992Z,100211.75
2019-04-28T17:06:21.962Z,100221.53
2019-04-28T17:08:53.523Z,100226.01
2019-04-28T17:11:25.844Z,100232.58
2019-04-28T17:13:57.498Z,100232.28
2019-04-28T17:16:29.524Z,100233.39
2019-04-28T17:19:02.397Z,100233.39
2019-04-28T17:21:35.748Z,100239.34
2019-04-28T17:24:07.371Z,100235.59
2019-04-28T17:26:39.320Z,100236.52
2019-04-28T17:29:11.137Z,100239.41
2019-04-28T17:31:44.733Z,100240.55
2019-04-28T17:34:16.348Z,100251.27
2019-04-28T17:36:48.141Z,100256.98
2019-04-28T17:39:25.944Z,100252.00
2019-04-28T17:41:57.505Z,100258.34
2019-04-28T17:44:29.358Z,100258.43
2019-04-28T17:47:00.893Z,100265.00
2019-04-28T17:49:34.581Z,100266.95
2019-04-28T17:52:06.763Z,100270.47
2019-04-28T17:54:38.667Z,100273.50
2019-04-28T17:57:11.871Z,100278.41
2019-04-28T17:59:45.286Z,100279.75
2019-04-28T18:02:36.371Z,100286.92
2019-04-28T18:05:12.633Z,100290.16
2019-04-28T18:07:45.131Z,100298.40
2019-04-28T18:10:17.168Z,100296.32
2019-04-28T18:12:59.898Z,100297.78
2019-04-28T18:15:24.203Z,100302.45
2019-04-28T18:17:57.618Z,100308.17
2019-04-28T18:20:30.956Z,100308.70
2019-04-28T18:23:04.214Z,100309.09
2019-04-28T18:25:36.525Z,100311.09
2019-04-28T18:28:08.023Z,100313.58
2019-04-28T18:30:41.218Z,100313.80
2019-04-28T18:33:14.834Z,100311.41
2019-04-28T18:35:48.377Z,100312.86
2019-04-28T18:38:34.376Z,100308.48
2019-04-28T18:41:12.277Z,100306.42
2019-04-28T18:43:45.886Z,100307.66
2019-04-28T18:46:20.695Z,100314.06
2019-04-28T18:48:52.329Z,100308.55
2019-04-28T18:51:29.709Z,100309.60
2019-04-28T18:54:02.642Z,100304.91
2019-04-28T18:56:34.824Z,100312.08
2019-04-28T18:59:06.777Z,100312.24
2019-04-28T19:01:40.346Z,100309.27
2019-04-28T19:04:12.136Z,100305.95
2019-04-28T19:06:44.470Z,100303.41
2019-04-28T19:09:33.058Z,100305.67
2019-04-28T19:12:22.871Z,100306.38
2019-04-28T19:14:59.317Z,100308.93
2019-04-28T19:17:36.603Z,100303.64
2019-04-28T19:20:08.869Z,100305.47
2019-04-28T19:22:47.751Z,100304.52
2019-04-28T19:25:19.560Z,100300.24
2019-04-28T19:27:53.650Z,100307.17
2019-04-28T19:30:27.391Z,100303.02
2019-04-28T19:33:00.965Z,100306.88
2019-04-28T19:35:32.510Z,100302.68
2019-04-28T19:38:04.615Z,100307.42
2019-04-28T19:40:36.870Z,100312.93
2019-04-28T19:43:08.917Z,100311.86
2019-04-28T19:45:43.668Z,100316.42
2019-04-28T19:48:31.155Z,100316.73
2019-04-28T19:51:03.039Z,100320.34
2019-04-28T19:53:34.922Z,100320.20
2019-04-28T19:56:10.461Z,100313.81
2019-04-28T19:58:44.430Z,100319.53
2019-04-28T20:01:28.552Z,100319.70
2019-04-28T20:04:01.448Z,100321.27
2019-04-28T20:06:34.086Z,100322.53
2019-04-28T20:09:08.052Z,100326.80
2019-04-28T20:11:40.590Z,100329.21
2019-04-28T20:14:12.040Z,100328.69
2019-04-28T20:16:43.807Z,100319.41
2019-04-28T20:19:15.450Z,100330.05
2019-04-28T20:21:47.336Z,100328.15
2019-04-28T20:24:19.588Z,100325.77
2019-04-28T20:26:53.186Z,100332.20
2019-04-28T20:29:24.859Z,100328.13
2019-04-28T20:31:57.745Z,100332.96
2019-04-28T20:34:29.503Z,100338.84
2019-04-28T20:37:06.520Z,100342.97
2019-04-28T20:39:38.391Z,100344.58
2019-04-28T20:42:11.738Z,100345.16
2019-04-28T20:44:45.113Z,100342.20
2019-04-28T20:47:16.986Z,100334.47
2019-04-28T20:49:49.669Z,100339.47
2019-04-28T20:52:21.347Z,100334.22
2019-04-28T20:54:52.912Z,100338.84
2019-04-28T20:57:26.994Z,100339.75
2019-04-28T20:59:59.222Z,100337.27
2019-04-28T21:02:31.277Z,100338.01
2019-04-28T21:05:02.993Z,100344.03
2019-04-28T21:07:35.746Z,100348.98
2019-04-28T21:10:07.674Z,100351.36
2019-04-28T21:12:40.110Z,100358.97
2019-04-28T21:15:12.135Z,100360.41
2019-04-28T21:17:43.899Z,100355.03
2019-04-28T21:20:15.342Z,100364.03
2019-04-28T21:22:48.414Z,100359.30
2019-04-28T21:25:21.998Z,100363.86
2019-04-28T21:27:55.067Z,100359.69
2019-04-28T21:30:26.553Z,100360.71
2019-04-28T21:33:00.481Z,100370.16
2019-04-28T21:35:33.663Z,100365.55
2019-04-28T21:38:05.380Z,100366.89
2019-04-28T21:40:37.383Z,100366.66
2019-04-28T21:43:16.720Z,100371.78
2019-04-28T21:45:58.362Z,100370.20
2019-04-28T21:48:38.183Z,100361.78
2019-04-28T21:51:11.983Z,100370.77
2019-04-28T21:53:43.887Z,100376.49
2019-04-28T21:56:15.604Z,100374.93
2019-04-28T21:58:47.411Z,100379.94
2019-04-28T22:01:22.464Z,100372.68
2019-04-28T22:03:54.122Z,100373.58
2019-04-28T22:06:25.745Z,100373.91
2019-04-28T22:08:57.514Z,100369.42
2019-04-28T22:11:29.385Z,100374.25
2019-04-28T22:14:00.885Z,100369.88
2019-04-28T22:16:32.641Z,100364.59
2019-04-28T22:19:04.500Z,100360.53
2019-04-28T22:21:36.335Z,100359.59
2019-04-28T22:24:19.082Z,100355.67
2019-04-28T22:26:55.128Z,100356.48
2019-04-28T22:29:27.361Z,100350.16
2019-04-28T22:31:58.920Z,100348.12
2019-04-28T22:34:31.522Z,100352.28
2019-04-28T22:37:03.328Z,100351.05
2019-04-28T22:39:34.927Z,100347.97
2019-04-28T22:42:07.903Z,100344.83
2019-04-28T22:44:39.514Z,100350.61
2019-04-28T22:47:13.362Z,100344.64
2019-04-28T22:49:45.227Z,100347.99
2019-04-28T22:52:16.917Z,100346.52
2019-04-28T22:54:50.174Z,100344.60
2019-04-28T22:57:39.853Z,100343.01
2019-04-28T23:00:18.973Z,100342.80
2019-04-28T23:02:52.310Z,100338.30
2019-04-28T23:05:24.195Z,100337.92
2019-04-28T23:07:56.003Z,100328.30
2019-04-28T23:10:27.799Z,100340.69
2019-04-28T23:13:01.205Z,100333.07
2019-04-28T23:15:33.258Z,100336.66
2019-04-28T23:18:05.018Z,100329.80
2019-04-28T23:20:38.391Z,100324.53
2019-04-28T23:23:10.455Z,100327.40
2019-04-28T23:25:42.026Z,100327.66
2019-04-28T23:28:13.767Z,100331.06
2019-04-28T23:30:46.572Z,100337.14
2019-04-28T23:33:19.068Z,100336.89
2019-04-28T23:35:52.035Z,100335.54
2019-04-28T23:38:24.628Z,100339.55
2019-04-28T23:41:07.584Z,100345.50
2019-04-28T23:43:39.282Z,100339.75
2019-04-28T23:46:11.034Z,100347.45
2019-04-28T23:48:42.447Z,100346.14
2019-04-28T23:51:31.796Z,100339.29
2019-04-28T23:54:05.156Z,100346.11
2019-04-28T23:56:36.903Z,100346.45
2019-04-28T23:59:08.684Z,100345.84
